sensor_id;sensor_type;location;lat;lon;timestamp;P1;durP1;ratioP1;P2;durP2;ratioP2
10847;SDS011;5477;48.806;9.154;2024-03-06T00:01:46;4.87;;;1.93;;
10847;SDS011;5477;48.806;9.154;2024-03-06T00:04:14;4.10;;;2.37;;
10847;SDS011;5477;48.806;9.154;2024-03-06T00:06:46;2.10;;;1.60;;
10847;SDS011;5477;48.806;9.154;2024-03-06T00:09:14;3.60;;;1.93;;
10847;SDS011;5477;48.806;9.154;2024-03-06T00:11:42;2.87;;;1.70;;
10847;SDS011;5477;48.806;9.154;2024-03-06T00:14:10;2.80;;;1.70;;
10847;SDS011;5477;48.806;9.154;2024-03-06T00:16:39;6.87;;;3.33;;
10847;SDS011;5477;48.806;9.154;2024-03-06T00:19:07;10.20;;;5.23;;
10847;SDS011;5477;48.806;9.154;2024-03-06T00:21:35;2.70;;;2.20;;
10847;SDS011;5477;48.806;9.154;2024-03-06T00:24:05;4.53;;;2.00;;
10847;SDS011;5477;48.806;9.154;2024-03-06T00:26:33;3.30;;;2.20;;
10847;SDS011;5477;48.806;9.154;2024-03-06T00:29:01;2.03;;;1.40;;
10847;SDS011;5477;48.806;9.154;2024-03-06T00:31:29;2.73;;;1.90;;
10847;SDS011;5477;48.806;9.154;2024-03-06T00:33:58;2.50;;;1.77;;
10847;SDS011;5477;48.806;9.154;2024-03-06T00:36:26;3.07;;;1.50;;
10847;SDS011;5477;48.806;9.154;2024-03-06T00:38:54;2.33;;;1.70;;
10847;SDS011;5477;48.806;9.154;2024-03-06T00:41:24;2.70;;;1.90;;
10847;SDS011;5477;48.806;9.154;2024-03-06T00:43:52;2.40;;;1.53;;
10847;SDS011;5477;48.806;9.154;2024-03-06T00:46:20;3.70;;;1.90;;
10847;SDS011;5477;48.806;9.154;2024-03-06T00:48:48;2.77;;;2.03;;
10847;SDS011;5477;48.806;9.154;2024-03-06T00:51:16;5.30;;;2.00;;
10847;SDS011;5477;48.806;9.154;2024-03-06T00:53:49;3.10;;;2.00;;
10847;SDS011;5477;48.806;9.154;2024-03-06T00:56:17;3.53;;;2.07;;
10847;SDS011;5477;48.806;9.154;2024-03-06T00:58:47;3.83;;;2.13;;
10847;SDS011;5477;48.806;9.154;2024-03-06T01:01:15;3.93;;;2.20;;
10847;SDS011;5477;48.806;9.154;2024-03-06T01:03:43;3.57;;;2.67;;
10847;SDS011;5477;48.806;9.154;2024-03-06T01:06:11;3.73;;;2.50;;
10847;SDS011;5477;48.806;9.154;2024-03-06T01:08:40;4.83;;;2.97;;
10847;SDS011;5477;48.806;9.154;2024-03-06T01:11:08;4.00;;;2.87;;
10847;SDS011;5477;48.806;9.154;2024-03-06T01:13:40;4.07;;;2.83;;
10847;SDS011;5477;48.806;9.154;2024-03-06T01:16:10;3.77;;;2.80;;
10847;SDS011;5477;48.806;9.154;2024-03-06T01:18:38;5.70;;;3.30;;
10847;SDS011;5477;48.806;9.154;2024-03-06T01:21:06;3.70;;;2.90;;
10847;SDS011;5477;48.806;9.154;2024-03-06T01:23:34;4.57;;;3.10;;
10847;SDS011;5477;48.806;9.154;2024-03-06T01:26:02;4.40;;;3.10;;
10847;SDS011;5477;48.806;9.154;2024-03-06T01:28:30;4.73;;;2.90;;
10847;SDS011;5477;48.806;9.154;2024-03-06T01:30:59;4.47;;;2.60;;
10847;SDS011;5477;48.806;9.154;2024-03-06T01:33:28;5.37;;;2.90;;
10847;SDS011;5477;48.806;9.154;2024-03-06T01:35:56;4.60;;;2.87;;
10847;SDS011;5477;48.806;9.154;2024-03-06T01:38:24;4.40;;;2.70;;
10847;SDS011;5477;48.806;9.154;2024-03-06T01:40:52;3.30;;;2.60;;
10847;SDS011;5477;48.806;9.154;2024-03-06T01:43:22;4.47;;;2.20;;
10847;SDS011;5477;48.806;9.154;2024-03-06T01:45:51;5.10;;;2.43;;
10847;SDS011;5477;48.806;9.154;2024-03-06T01:48:21;3.43;;;2.43;;
10847;SDS011;5477;48.806;9.154;2024-03-06T01:50:53;3.07;;;2.43;;
10847;SDS011;5477;48.806;9.154;2024-03-06T01:53:23;2.90;;;2.00;;
10847;SDS011;5477;48.806;9.154;2024-03-06T01:55:52;3.40;;;2.20;;
10847;SDS011;5477;48.806;9.154;2024-03-06T01:58:21;2.33;;;1.80;;
10847;SDS011;5477;48.806;9.154;2024-03-06T02:00:50;4.43;;;2.43;;
10847;SDS011;5477;48.806;9.154;2024-03-06T02:03:20;2.33;;;2.00;;
10847;SDS011;5477;48.806;9.154;2024-03-06T02:05:48;3.00;;;2.30;;
10847;SDS011;5477;48.806;9.154;2024-03-06T02:08:19;2.83;;;1.93;;
10847;SDS011;5477;48.806;9.154;2024-03-06T02:10:47;3.73;;;2.20;;
10847;SDS011;5477;48.806;9.154;2024-03-06T02:13:15;2.70;;;2.00;;
10847;SDS011;5477;48.806;9.154;2024-03-06T02:15:44;3.33;;;2.10;;
10847;SDS011;5477;48.806;9.154;2024-03-06T02:18:12;2.50;;;2.00;;
10847;SDS011;5477;48.806;9.154;2024-03-06T02:20:42;3.57;;;1.73;;
10847;SDS011;5477;48.806;9.154;2024-03-06T02:23:12;3.30;;;2.00;;
10847;SDS011;5477;48.806;9.154;2024-03-06T02:25:40;3.10;;;2.10;;
10847;SDS011;5477;48.806;9.154;2024-03-06T02:28:09;3.30;;;2.27;;
10847;SDS011;5477;48.806;9.154;2024-03-06T02:30:36;5.33;;;2.90;;
10847;SDS011;5477;48.806;9.154;2024-03-06T02:33:05;6.40;;;4.33;;
10847;SDS011;5477;48.806;9.154;2024-03-06T02:35:33;6.27;;;3.87;;
10847;SDS011;5477;48.806;9.154;2024-03-06T02:38:04;3.83;;;2.93;;
10847;SDS011;5477;48.806;9.154;2024-03-06T02:40:32;3.43;;;2.50;;
10847;SDS011;5477;48.806;9.154;2024-03-06T02:43:00;5.13;;;3.10;;
10847;SDS011;5477;48.806;9.154;2024-03-06T02:45:28;4.40;;;2.90;;
10847;SDS011;5477;48.806;9.154;2024-03-06T02:47:56;4.23;;;2.90;;
10847;SDS011;5477;48.806;9.154;2024-03-06T02:50:24;4.53;;;3.10;;
10847;SDS011;5477;48.806;9.154;2024-03-06T02:52:52;4.70;;;3.17;;
10847;SDS011;5477;48.806;9.154;2024-03-06T02:55:22;4.33;;;3.00;;
10847;SDS011;5477;48.806;9.154;2024-03-06T02:57:51;6.30;;;3.37;;
10847;SDS011;5477;48.806;9.154;2024-03-06T03:00:19;5.67;;;3.40;;
10847;SDS011;5477;48.806;9.154;2024-03-06T03:02:48;5.47;;;3.70;;
10847;SDS011;5477;48.806;9.154;2024-03-06T03:05:16;4.87;;;3.33;;
10847;SDS011;5477;48.806;9.154;2024-03-06T03:07:44;5.40;;;3.30;;
10847;SDS011;5477;48.806;9.154;2024-03-06T03:10:12;3.93;;;3.30;;
10847;SDS011;5477;48.806;9.154;2024-03-06T03:12:42;4.73;;;3.17;;
10847;SDS011;5477;48.806;9.154;2024-03-06T03:15:10;3.73;;;3.30;;
10847;SDS011;5477;48.806;9.154;2024-03-06T03:17:38;5.67;;;3.30;;
10847;SDS011;5477;48.806;9.154;2024-03-06T03:20:06;5.87;;;3.20;;
10847;SDS011;5477;48.806;9.154;2024-03-06T03:22:37;4.60;;;2.90;;
10847;SDS011;5477;48.806;9.154;2024-03-06T03:25:07;3.53;;;2.80;;
10847;SDS011;5477;48.806;9.154;2024-03-06T03:27:36;3.20;;;2.70;;
10847;SDS011;5477;48.806;9.154;2024-03-06T03:30:06;3.80;;;2.90;;
10847;SDS011;5477;48.806;9.154;2024-03-06T03:32:36;4.47;;;3.10;;
10847;SDS011;5477;48.806;9.154;2024-03-06T03:35:04;2.90;;;2.60;;
10847;SDS011;5477;48.806;9.154;2024-03-06T03:37:33;5.57;;;2.70;;
10847;SDS011;5477;48.806;9.154;2024-03-06T03:40:01;4.83;;;2.60;;
10847;SDS011;5477;48.806;9.154;2024-03-06T03:42:30;3.43;;;2.60;;
10847;SDS011;5477;48.806;9.154;2024-03-06T03:44:58;5.00;;;2.70;;
10847;SDS011;5477;48.806;9.154;2024-03-06T03:47:27;4.60;;;2.97;;
10847;SDS011;5477;48.806;9.154;2024-03-06T03:49:55;4.20;;;3.00;;
10847;SDS011;5477;48.806;9.154;2024-03-06T03:52:35;3.50;;;2.80;;
10847;SDS011;5477;48.806;9.154;2024-03-06T03:55:08;3.47;;;2.83;;
10847;SDS011;5477;48.806;9.154;2024-03-06T03:57:36;5.03;;;3.50;;
10847;SDS011;5477;48.806;9.154;2024-03-06T04:00:04;4.40;;;2.90;;
10847;SDS011;5477;48.806;9.154;2024-03-06T04:02:39;4.00;;;2.80;;
10847;SDS011;5477;48.806;9.154;2024-03-06T04:05:08;3.83;;;3.40;;
10847;SDS011;5477;48.806;9.154;2024-03-06T04:07:37;3.33;;;2.90;;
10847;SDS011;5477;48.806;9.154;2024-03-06T04:10:05;5.37;;;3.10;;
10847;SDS011;5477;48.806;9.154;2024-03-06T04:12:36;4.00;;;2.63;;
10847;SDS011;5477;48.806;9.154;2024-03-06T04:15:06;5.20;;;2.80;;
10847;SDS011;5477;48.806;9.154;2024-03-06T04:17:34;4.60;;;2.90;;
10847;SDS011;5477;48.806;9.154;2024-03-06T04:20:04;3.40;;;2.70;;
10847;SDS011;5477;48.806;9.154;2024-03-06T04:22:34;10.57;;;3.20;;
10847;SDS011;5477;48.806;9.154;2024-03-06T04:25:02;5.87;;;3.30;;
10847;SDS011;5477;48.806;9.154;2024-03-06T04:27:31;6.67;;;3.60;;
10847;SDS011;5477;48.806;9.154;2024-03-06T04:29:59;4.97;;;3.40;;
10847;SDS011;5477;48.806;9.154;2024-03-06T04:32:27;4.67;;;3.40;;
10847;SDS011;5477;48.806;9.154;2024-03-06T04:34:55;6.00;;;3.30;;
10847;SDS011;5477;48.806;9.154;2024-03-06T04:37:24;4.83;;;3.40;;
10847;SDS011;5477;48.806;9.154;2024-03-06T04:39:53;3.50;;;3.00;;
10847;SDS011;5477;48.806;9.154;2024-03-06T04:42:21;4.40;;;3.27;;
10847;SDS011;5477;48.806;9.154;2024-03-06T04:44:49;4.27;;;2.97;;
10847;SDS011;5477;48.806;9.154;2024-03-06T04:47:17;5.70;;;3.20;;
10847;SDS011;5477;48.806;9.154;2024-03-06T04:49:45;5.63;;;3.30;;
10847;SDS011;5477;48.806;9.154;2024-03-06T04:52:13;5.17;;;3.10;;
10847;SDS011;5477;48.806;9.154;2024-03-06T04:54:42;6.90;;;3.63;;
10847;SDS011;5477;48.806;9.154;2024-03-06T04:57:10;5.43;;;3.30;;
10847;SDS011;5477;48.806;9.154;2024-03-06T04:59:38;6.03;;;3.67;;
10847;SDS011;5477;48.806;9.154;2024-03-06T05:02:07;6.10;;;3.77;;
10847;SDS011;5477;48.806;9.154;2024-03-06T05:04:35;3.13;;;2.73;;
10847;SDS011;5477;48.806;9.154;2024-03-06T05:07:21;4.63;;;3.37;;
10847;SDS011;5477;48.806;9.154;2024-03-06T05:10:08;5.57;;;3.43;;
10847;SDS011;5477;48.806;9.154;2024-03-06T05:12:53;5.57;;;3.40;;
10847;SDS011;5477;48.806;9.154;2024-03-06T05:15:39;6.23;;;3.53;;
10847;SDS011;5477;48.806;9.154;2024-03-06T05:18:24;5.13;;;3.00;;
10847;SDS011;5477;48.806;9.154;2024-03-06T05:21:10;7.33;;;3.47;;
10847;SDS011;5477;48.806;9.154;2024-03-06T05:23:56;5.13;;;3.10;;
10847;SDS011;5477;48.806;9.154;2024-03-06T05:26:43;6.03;;;3.90;;
10847;SDS011;5477;48.806;9.154;2024-03-06T05:29:28;4.17;;;3.40;;
10847;SDS011;5477;48.806;9.154;2024-03-06T05:32:14;7.70;;;3.80;;
10847;SDS011;5477;48.806;9.154;2024-03-06T05:34:59;6.20;;;3.57;;
10847;SDS011;5477;48.806;9.154;2024-03-06T05:37:44;5.17;;;3.50;;
10847;SDS011;5477;48.806;9.154;2024-03-06T05:40:30;6.47;;;3.50;;
10847;SDS011;5477;48.806;9.154;2024-03-06T05:43:20;6.90;;;3.63;;
10847;SDS011;5477;48.806;9.154;2024-03-06T05:46:06;4.77;;;3.47;;
10847;SDS011;5477;48.806;9.154;2024-03-06T05:48:51;6.47;;;3.40;;
10847;SDS011;5477;48.806;9.154;2024-03-06T05:51:37;7.40;;;3.77;;
10847;SDS011;5477;48.806;9.154;2024-03-06T05:54:23;6.30;;;3.60;;
10847;SDS011;5477;48.806;9.154;2024-03-06T05:57:09;5.57;;;4.07;;
10847;SDS011;5477;48.806;9.154;2024-03-06T05:59:56;6.20;;;4.00;;
10847;SDS011;5477;48.806;9.154;2024-03-06T06:02:24;7.37;;;4.07;;
10847;SDS011;5477;48.806;9.154;2024-03-06T06:04:52;5.90;;;4.00;;
10847;SDS011;5477;48.806;9.154;2024-03-06T06:07:40;4.97;;;3.73;;
10847;SDS011;5477;48.806;9.154;2024-03-06T06:10:08;6.27;;;4.10;;
10847;SDS011;5477;48.806;9.154;2024-03-06T06:12:37;5.70;;;4.23;;
10847;SDS011;5477;48.806;9.154;2024-03-06T06:15:06;7.40;;;4.83;;
10847;SDS011;5477;48.806;9.154;2024-03-06T06:17:35;6.70;;;4.47;;
10847;SDS011;5477;48.806;9.154;2024-03-06T06:20:06;6.30;;;4.27;;
10847;SDS011;5477;48.806;9.154;2024-03-06T06:22:36;5.73;;;4.27;;
10847;SDS011;5477;48.806;9.154;2024-03-06T06:25:04;6.30;;;4.00;;
10847;SDS011;5477;48.806;9.154;2024-03-06T06:27:33;6.53;;;4.60;;
10847;SDS011;5477;48.806;9.154;2024-03-06T06:30:01;7.30;;;4.40;;
10847;SDS011;5477;48.806;9.154;2024-03-06T06:32:34;6.20;;;4.50;;
10847;SDS011;5477;48.806;9.154;2024-03-06T06:35:02;6.60;;;4.20;;
10847;SDS011;5477;48.806;9.154;2024-03-06T06:37:31;6.87;;;5.33;;
10847;SDS011;5477;48.806;9.154;2024-03-06T06:40:00;10.63;;;6.70;;
10847;SDS011;5477;48.806;9.154;2024-03-06T06:42:32;8.27;;;5.33;;
10847;SDS011;5477;48.806;9.154;2024-03-06T06:45:01;5.83;;;4.43;;
10847;SDS011;5477;48.806;9.154;2024-03-06T06:47:30;6.63;;;4.77;;
10847;SDS011;5477;48.806;9.154;2024-03-06T06:49:59;6.70;;;4.77;;
10847;SDS011;5477;48.806;9.154;2024-03-06T06:52:27;4.90;;;4.23;;
10847;SDS011;5477;48.806;9.154;2024-03-06T06:54:55;8.57;;;4.83;;
10847;SDS011;5477;48.806;9.154;2024-03-06T06:57:23;5.97;;;4.37;;
10847;SDS011;5477;48.806;9.154;2024-03-06T06:59:51;7.30;;;4.83;;
10847;SDS011;5477;48.806;9.154;2024-03-06T07:02:19;7.57;;;4.70;;
10847;SDS011;5477;48.806;9.154;2024-03-06T07:04:48;7.23;;;4.53;;
10847;SDS011;5477;48.806;9.154;2024-03-06T07:07:18;7.90;;;4.80;;
10847;SDS011;5477;48.806;9.154;2024-03-06T07:09:48;5.93;;;4.10;;
10847;SDS011;5477;48.806;9.154;2024-03-06T07:12:16;6.63;;;3.83;;
10847;SDS011;5477;48.806;9.154;2024-03-06T07:14:44;8.37;;;4.37;;
10847;SDS011;5477;48.806;9.154;2024-03-06T07:17:12;5.97;;;4.50;;
10847;SDS011;5477;48.806;9.154;2024-03-06T07:19:42;5.77;;;3.97;;
10847;SDS011;5477;48.806;9.154;2024-03-06T07:22:10;6.27;;;4.30;;
10847;SDS011;5477;48.806;9.154;2024-03-06T07:24:39;7.13;;;4.33;;
10847;SDS011;5477;48.806;9.154;2024-03-06T07:27:07;7.97;;;4.57;;
10847;SDS011;5477;48.806;9.154;2024-03-06T07:29:36;6.93;;;4.70;;
10847;SDS011;5477;48.806;9.154;2024-03-06T07:32:04;5.40;;;3.93;;
10847;SDS011;5477;48.806;9.154;2024-03-06T07:34:33;4.67;;;4.03;;
10847;SDS011;5477;48.806;9.154;2024-03-06T07:37:01;8.90;;;4.57;;
10847;SDS011;5477;48.806;9.154;2024-03-06T07:39:31;7.90;;;3.90;;
10847;SDS011;5477;48.806;9.154;2024-03-06T07:42:03;5.77;;;3.80;;
10847;SDS011;5477;48.806;9.154;2024-03-06T07:44:31;5.87;;;4.23;;
10847;SDS011;5477;48.806;9.154;2024-03-06T07:46:59;6.30;;;4.60;;
10847;SDS011;5477;48.806;9.154;2024-03-06T07:49:27;6.03;;;4.53;;
10847;SDS011;5477;48.806;9.154;2024-03-06T07:51:55;7.53;;;4.43;;
10847;SDS011;5477;48.806;9.154;2024-03-06T07:54:24;6.13;;;4.20;;
10847;SDS011;5477;48.806;9.154;2024-03-06T07:56:52;8.70;;;4.40;;
10847;SDS011;5477;48.806;9.154;2024-03-06T07:59:22;5.20;;;4.07;;
10847;SDS011;5477;48.806;9.154;2024-03-06T08:01:50;6.50;;;4.03;;
10847;SDS011;5477;48.806;9.154;2024-03-06T08:04:18;7.17;;;4.23;;
10847;SDS011;5477;48.806;9.154;2024-03-06T08:06:46;6.63;;;4.13;;
10847;SDS011;5477;48.806;9.154;2024-03-06T08:09:14;5.87;;;3.80;;
10847;SDS011;5477;48.806;9.154;2024-03-06T08:11:43;7.93;;;4.03;;
10847;SDS011;5477;48.806;9.154;2024-03-06T08:14:11;6.80;;;3.97;;
10847;SDS011;5477;48.806;9.154;2024-03-06T08:16:42;6.10;;;4.40;;
10847;SDS011;5477;48.806;9.154;2024-03-06T08:19:10;4.60;;;4.07;;
10847;SDS011;5477;48.806;9.154;2024-03-06T08:21:38;5.57;;;3.73;;
10847;SDS011;5477;48.806;9.154;2024-03-06T08:24:07;6.63;;;4.07;;
10847;SDS011;5477;48.806;9.154;2024-03-06T08:26:35;5.37;;;4.07;;
10847;SDS011;5477;48.806;9.154;2024-03-06T08:29:03;8.80;;;3.80;;
10847;SDS011;5477;48.806;9.154;2024-03-06T08:31:31;5.23;;;3.93;;
10847;SDS011;5477;48.806;9.154;2024-03-06T08:34:00;6.73;;;3.70;;
10847;SDS011;5477;48.806;9.154;2024-03-06T08:36:28;6.43;;;3.97;;
10847;SDS011;5477;48.806;9.154;2024-03-06T08:38:56;5.17;;;3.60;;
10847;SDS011;5477;48.806;9.154;2024-03-06T08:41:25;5.87;;;3.80;;
10847;SDS011;5477;48.806;9.154;2024-03-06T08:43:53;5.53;;;3.90;;
10847;SDS011;5477;48.806;9.154;2024-03-06T08:46:21;6.30;;;3.63;;
10847;SDS011;5477;48.806;9.154;2024-03-06T08:48:50;5.60;;;3.70;;
10847;SDS011;5477;48.806;9.154;2024-03-06T08:51:19;4.73;;;4.07;;
10847;SDS011;5477;48.806;9.154;2024-03-06T08:53:48;5.90;;;3.70;;
10847;SDS011;5477;48.806;9.154;2024-03-06T08:56:16;6.83;;;4.40;;
10847;SDS011;5477;48.806;9.154;2024-03-06T08:58:45;5.07;;;3.97;;
10847;SDS011;5477;48.806;9.154;2024-03-06T09:01:13;5.03;;;3.83;;
10847;SDS011;5477;48.806;9.154;2024-03-06T09:03:41;7.13;;;4.27;;
10847;SDS011;5477;48.806;9.154;2024-03-06T09:06:09;6.90;;;4.87;;
10847;SDS011;5477;48.806;9.154;2024-03-06T09:08:38;6.60;;;5.13;;
10847;SDS011;5477;48.806;9.154;2024-03-06T09:11:06;7.17;;;4.77;;
10847;SDS011;5477;48.806;9.154;2024-03-06T09:13:34;7.80;;;5.33;;
10847;SDS011;5477;48.806;9.154;2024-03-06T09:16:03;6.27;;;4.60;;
10847;SDS011;5477;48.806;9.154;2024-03-06T09:18:31;6.00;;;4.40;;
10847;SDS011;5477;48.806;9.154;2024-03-06T09:21:00;6.30;;;4.40;;
10847;SDS011;5477;48.806;9.154;2024-03-06T09:23:30;5.03;;;4.47;;
10847;SDS011;5477;48.806;9.154;2024-03-06T09:26:01;6.97;;;4.23;;
10847;SDS011;5477;48.806;9.154;2024-03-06T09:28:29;6.43;;;4.53;;
10847;SDS011;5477;48.806;9.154;2024-03-06T09:30:57;6.27;;;4.20;;
10847;SDS011;5477;48.806;9.154;2024-03-06T09:33:25;8.23;;;5.00;;
10847;SDS011;5477;48.806;9.154;2024-03-06T09:35:53;7.13;;;4.27;;
10847;SDS011;5477;48.806;9.154;2024-03-06T09:38:23;4.90;;;4.37;;
10847;SDS011;5477;48.806;9.154;2024-03-06T09:40:53;7.20;;;4.60;;
10847;SDS011;5477;48.806;9.154;2024-03-06T09:43:25;5.20;;;4.30;;
10847;SDS011;5477;48.806;9.154;2024-03-06T09:45:57;7.33;;;5.70;;
10847;SDS011;5477;48.806;9.154;2024-03-06T09:48:25;5.00;;;4.50;;
10847;SDS011;5477;48.806;9.154;2024-03-06T09:50:53;10.57;;;5.77;;
10847;SDS011;5477;48.806;9.154;2024-03-06T09:53:24;7.93;;;5.53;;
10847;SDS011;5477;48.806;9.154;2024-03-06T09:55:53;8.73;;;6.10;;
10847;SDS011;5477;48.806;9.154;2024-03-06T09:58:25;8.33;;;6.23;;
10847;SDS011;5477;48.806;9.154;2024-03-06T10:00:53;8.60;;;6.20;;
10847;SDS011;5477;48.806;9.154;2024-03-06T10:03:22;8.53;;;6.80;;
10847;SDS011;5477;48.806;9.154;2024-03-06T10:05:50;9.10;;;7.10;;
10847;SDS011;5477;48.806;9.154;2024-03-06T10:08:19;10.07;;;7.03;;
10847;SDS011;5477;48.806;9.154;2024-03-06T10:10:48;9.33;;;7.37;;
10847;SDS011;5477;48.806;9.154;2024-03-06T10:13:17;9.30;;;7.73;;
10847;SDS011;5477;48.806;9.154;2024-03-06T10:15:56;8.40;;;7.57;;
10847;SDS011;5477;48.806;9.154;2024-03-06T10:18:26;8.07;;;7.27;;
10847;SDS011;5477;48.806;9.154;2024-03-06T10:20:54;10.37;;;7.50;;
10847;SDS011;5477;48.806;9.154;2024-03-06T10:23:23;9.47;;;8.00;;
10847;SDS011;5477;48.806;9.154;2024-03-06T10:25:51;10.63;;;8.27;;
10847;SDS011;5477;48.806;9.154;2024-03-06T10:28:19;10.77;;;8.67;;
10847;SDS011;5477;48.806;9.154;2024-03-06T10:30:49;10.80;;;8.77;;
10847;SDS011;5477;48.806;9.154;2024-03-06T10:33:20;10.87;;;9.40;;
10847;SDS011;5477;48.806;9.154;2024-03-06T10:35:48;10.60;;;9.50;;
10847;SDS011;5477;48.806;9.154;2024-03-06T10:38:16;12.03;;;9.77;;
10847;SDS011;5477;48.806;9.154;2024-03-06T10:40:47;11.30;;;10.13;;
10847;SDS011;5477;48.806;9.154;2024-03-06T10:43:18;16.67;;;11.60;;
10847;SDS011;5477;48.806;9.154;2024-03-06T10:45:48;14.83;;;12.27;;
10847;SDS011;5477;48.806;9.154;2024-03-06T10:48:18;15.30;;;11.33;;
10847;SDS011;5477;48.806;9.154;2024-03-06T10:50:48;14.13;;;11.93;;
10847;SDS011;5477;48.806;9.154;2024-03-06T10:53:18;18.37;;;14.83;;
10847;SDS011;5477;48.806;9.154;2024-03-06T10:55:49;13.57;;;11.67;;
10847;SDS011;5477;48.806;9.154;2024-03-06T10:58:19;16.33;;;12.77;;
10847;SDS011;5477;48.806;9.154;2024-03-06T11:00:48;19.80;;;14.00;;
10847;SDS011;5477;48.806;9.154;2024-03-06T11:03:18;15.17;;;13.33;;
10847;SDS011;5477;48.806;9.154;2024-03-06T11:05:48;14.80;;;12.37;;
10847;SDS011;5477;48.806;9.154;2024-03-06T11:08:18;15.50;;;12.60;;
10847;SDS011;5477;48.806;9.154;2024-03-06T11:10:47;14.17;;;11.63;;
10847;SDS011;5477;48.806;9.154;2024-03-06T11:13:21;13.93;;;12.27;;
10847;SDS011;5477;48.806;9.154;2024-03-06T11:15:51;14.40;;;12.83;;
10847;SDS011;5477;48.806;9.154;2024-03-06T11:21:32;14.97;;;12.30;;
10847;SDS011;5477;48.806;9.154;2024-03-06T11:24:13;15.17;;;13.47;;
10847;SDS011;5477;48.806;9.154;2024-03-06T11:26:57;16.43;;;13.93;;
10847;SDS011;5477;48.806;9.154;2024-03-06T11:29:28;15.97;;;14.27;;
10847;SDS011;5477;48.806;9.154;2024-03-06T11:32:00;19.07;;;15.07;;
10847;SDS011;5477;48.806;9.154;2024-03-06T11:34:35;18.60;;;14.77;;
10847;SDS011;5477;48.806;9.154;2024-03-06T11:37:05;17.67;;;15.43;;
10847;SDS011;5477;48.806;9.154;2024-03-06T11:39:36;20.17;;;15.50;;
10847;SDS011;5477;48.806;9.154;2024-03-06T11:42:06;18.00;;;14.47;;
10847;SDS011;5477;48.806;9.154;2024-03-06T11:44:35;19.57;;;14.77;;
10847;SDS011;5477;48.806;9.154;2024-03-06T11:47:05;18.97;;;15.10;;
10847;SDS011;5477;48.806;9.154;2024-03-06T11:49:35;19.47;;;15.23;;
10847;SDS011;5477;48.806;9.154;2024-03-06T11:52:06;20.93;;;16.20;;
10847;SDS011;5477;48.806;9.154;2024-03-06T11:54:36;19.30;;;16.10;;
10847;SDS011;5477;48.806;9.154;2024-03-06T11:57:05;19.10;;;15.40;;
10847;SDS011;5477;48.806;9.154;2024-03-06T11:59:34;18.37;;;15.23;;
10847;SDS011;5477;48.806;9.154;2024-03-06T12:02:05;19.07;;;15.60;;
10847;SDS011;5477;48.806;9.154;2024-03-06T12:04:36;19.90;;;16.00;;
10847;SDS011;5477;48.806;9.154;2024-03-06T12:07:08;20.03;;;15.40;;
10847;SDS011;5477;48.806;9.154;2024-03-06T12:09:37;18.20;;;14.83;;
10847;SDS011;5477;48.806;9.154;2024-03-06T12:12:09;21.63;;;16.23;;
10847;SDS011;5477;48.806;9.154;2024-03-06T12:14:38;18.60;;;15.40;;
10847;SDS011;5477;48.806;9.154;2024-03-06T12:17:11;19.37;;;15.90;;
10847;SDS011;5477;48.806;9.154;2024-03-06T12:19:41;18.93;;;14.50;;
10847;SDS011;5477;48.806;9.154;2024-03-06T12:22:12;18.67;;;15.50;;
10847;SDS011;5477;48.806;9.154;2024-03-06T12:24:41;20.00;;;15.40;;
10847;SDS011;5477;48.806;9.154;2024-03-06T12:27:09;18.47;;;16.30;;
10847;SDS011;5477;48.806;9.154;2024-03-06T12:29:39;18.57;;;15.33;;
10847;SDS011;5477;48.806;9.154;2024-03-06T12:32:15;20.63;;;16.57;;
10847;SDS011;5477;48.806;9.154;2024-03-06T12:34:55;19.60;;;16.17;;
10847;SDS011;5477;48.806;9.154;2024-03-06T12:37:29;18.73;;;15.87;;
10847;SDS011;5477;48.806;9.154;2024-03-06T12:39:58;21.37;;;16.43;;
10847;SDS011;5477;48.806;9.154;2024-03-06T12:42:27;19.73;;;16.27;;
10847;SDS011;5477;48.806;9.154;2024-03-06T12:44:55;19.77;;;15.60;;
10847;SDS011;5477;48.806;9.154;2024-03-06T12:47:23;20.70;;;16.77;;
10847;SDS011;5477;48.806;9.154;2024-03-06T12:49:52;19.80;;;16.23;;
10847;SDS011;5477;48.806;9.154;2024-03-06T12:52:20;18.53;;;15.87;;
10847;SDS011;5477;48.806;9.154;2024-03-06T12:54:49;20.60;;;16.37;;
10847;SDS011;5477;48.806;9.154;2024-03-06T12:57:17;19.27;;;15.90;;
10847;SDS011;5477;48.806;9.154;2024-03-06T12:59:45;18.40;;;15.80;;
10847;SDS011;5477;48.806;9.154;2024-03-06T13:02:13;20.57;;;16.83;;
10847;SDS011;5477;48.806;9.154;2024-03-06T13:04:41;18.03;;;15.67;;
10847;SDS011;5477;48.806;9.154;2024-03-06T13:07:09;21.13;;;15.27;;
10847;SDS011;5477;48.806;9.154;2024-03-06T13:09:38;18.20;;;14.97;;
10847;SDS011;5477;48.806;9.154;2024-03-06T13:12:07;17.50;;;15.13;;
10847;SDS011;5477;48.806;9.154;2024-03-06T13:14:36;17.93;;;15.03;;
10847;SDS011;5477;48.806;9.154;2024-03-06T13:17:04;20.50;;;15.53;;
10847;SDS011;5477;48.806;9.154;2024-03-06T13:19:34;16.13;;;14.23;;
10847;SDS011;5477;48.806;9.154;2024-03-06T13:22:02;17.47;;;13.60;;
10847;SDS011;5477;48.806;9.154;2024-03-06T13:24:34;15.90;;;13.60;;
10847;SDS011;5477;48.806;9.154;2024-03-06T13:27:08;19.10;;;13.47;;
10847;SDS011;5477;48.806;9.154;2024-03-06T13:29:36;16.63;;;14.37;;
10847;SDS011;5477;48.806;9.154;2024-03-06T13:32:03;15.77;;;13.80;;
10847;SDS011;5477;48.806;9.154;2024-03-06T13:34:32;17.97;;;15.43;;
10847;SDS011;5477;48.806;9.154;2024-03-06T13:36:59;15.87;;;13.63;;
10847;SDS011;5477;48.806;9.154;2024-03-06T13:39:28;17.50;;;13.10;;
10847;SDS011;5477;48.806;9.154;2024-03-06T13:41:56;16.20;;;13.37;;
10847;SDS011;5477;48.806;9.154;2024-03-06T13:44:26;15.50;;;13.67;;
10847;SDS011;5477;48.806;9.154;2024-03-06T13:46:54;14.57;;;13.07;;
10847;SDS011;5477;48.806;9.154;2024-03-06T13:49:33;16.03;;;13.90;;
10847;SDS011;5477;48.806;9.154;2024-03-06T13:52:03;17.37;;;13.93;;
10847;SDS011;5477;48.806;9.154;2024-03-06T13:54:33;16.67;;;14.37;;
10847;SDS011;5477;48.806;9.154;2024-03-06T13:57:01;17.47;;;14.43;;
10847;SDS011;5477;48.806;9.154;2024-03-06T13:59:31;16.53;;;14.23;;
10847;SDS011;5477;48.806;9.154;2024-03-06T14:01:58;16.93;;;14.40;;
10847;SDS011;5477;48.806;9.154;2024-03-06T14:04:27;17.93;;;15.07;;
10847;SDS011;5477;48.806;9.154;2024-03-06T14:06:55;17.67;;;14.20;;
10847;SDS011;5477;48.806;9.154;2024-03-06T14:09:25;17.33;;;14.97;;
10847;SDS011;5477;48.806;9.154;2024-03-06T14:11:53;16.20;;;14.13;;
10847;SDS011;5477;48.806;9.154;2024-03-06T14:14:21;18.93;;;14.10;;
10847;SDS011;5477;48.806;9.154;2024-03-06T14:16:51;19.33;;;15.40;;
10847;SDS011;5477;48.806;9.154;2024-03-06T14:19:19;18.57;;;16.27;;
10847;SDS011;5477;48.806;9.154;2024-03-06T14:21:47;19.57;;;17.20;;
10847;SDS011;5477;48.806;9.154;2024-03-06T14:24:16;19.63;;;15.73;;
10847;SDS011;5477;48.806;9.154;2024-03-06T14:26:44;17.47;;;14.57;;
10847;SDS011;5477;48.806;9.154;2024-03-06T14:29:14;17.97;;;15.63;;
10847;SDS011;5477;48.806;9.154;2024-03-06T14:31:42;20.67;;;18.20;;
10847;SDS011;5477;48.806;9.154;2024-03-06T14:34:11;18.53;;;15.73;;
10847;SDS011;5477;48.806;9.154;2024-03-06T14:36:40;20.03;;;16.93;;
10847;SDS011;5477;48.806;9.154;2024-03-06T14:39:08;19.67;;;16.57;;
10847;SDS011;5477;48.806;9.154;2024-03-06T14:41:41;17.07;;;15.23;;
10847;SDS011;5477;48.806;9.154;2024-03-06T14:44:11;19.60;;;16.20;;
10847;SDS011;5477;48.806;9.154;2024-03-06T14:46:40;22.53;;;15.93;;
10847;SDS011;5477;48.806;9.154;2024-03-06T14:49:09;17.47;;;14.80;;
10847;SDS011;5477;48.806;9.154;2024-03-06T14:51:38;17.53;;;15.13;;
10847;SDS011;5477;48.806;9.154;2024-03-06T14:54:07;17.57;;;14.37;;
10847;SDS011;5477;48.806;9.154;2024-03-06T14:56:35;19.53;;;15.30;;
10847;SDS011;5477;48.806;9.154;2024-03-06T14:59:03;20.47;;;15.23;;
10847;SDS011;5477;48.806;9.154;2024-03-06T15:01:31;20.10;;;15.80;;
10847;SDS011;5477;48.806;9.154;2024-03-06T15:03:59;17.30;;;15.30;;
10847;SDS011;5477;48.806;9.154;2024-03-06T15:06:27;21.33;;;15.60;;
10847;SDS011;5477;48.806;9.154;2024-03-06T15:08:56;18.27;;;14.87;;
10847;SDS011;5477;48.806;9.154;2024-03-06T15:11:24;22.03;;;16.73;;
10847;SDS011;5477;48.806;9.154;2024-03-06T15:13:56;21.83;;;18.17;;